sensor_id;sensor_type;location;lat;lon;timestamp;P1;durP1;ratioP1;P2;durP2;ratioP2
66870;SDS011;53780;44.998;9.926;2022-10-04T00:02:22;22.52;;;12.07;;
66870;SDS011;53780;44.998;9.926;2022-10-04T00:05:30;28.27;;;14.38;;
66870;SDS011;53780;44.998;9.926;2022-10-04T00:11:49;24.85;;;14.85;;
66870;SDS011;53780;44.998;9.926;2022-10-04T00:14:57;30.52;;;15.15;;
66870;SDS011;53780;44.998;9.926;2022-10-04T00:18:16;27.45;;;14.95;;
66870;SDS011;53780;44.998;9.926;2022-10-04T00:21:36;28.33;;;15.02;;
66870;SDS011;53780;44.998;9.926;2022-10-04T00:25:20;31.47;;;16.20;;
66870;SDS011;53780;44.998;9.926;2022-10-04T00:31:27;34.15;;;18.05;;
66870;SDS011;53780;44.998;9.926;2022-10-04T00:37:53;33.67;;;18.52;;
66870;SDS011;53780;44.998;9.926;2022-10-04T00:41:11;40.23;;;20.87;;
66870;SDS011;53780;44.998;9.926;2022-10-04T00:51:12;49.80;;;23.77;;
66870;SDS011;53780;44.998;9.926;2022-10-04T00:54:22;28.23;;;14.45;;
66870;SDS011;53780;44.998;9.926;2022-10-04T00:57:38;29.67;;;14.77;;
66870;SDS011;53780;44.998;9.926;2022-10-04T01:00:47;34.03;;;17.40;;
66870;SDS011;53780;44.998;9.926;2022-10-04T01:03:52;36.47;;;19.75;;
66870;SDS011;53780;44.998;9.926;2022-10-04T01:06:59;37.25;;;20.20;;
66870;SDS011;53780;44.998;9.926;2022-10-04T01:10:10;44.45;;;24.08;;
66870;SDS011;53780;44.998;9.926;2022-10-04T01:13:27;45.83;;;23.97;;
66870;SDS011;53780;44.998;9.926;2022-10-04T01:16:52;46.70;;;25.85;;
66870;SDS011;53780;44.998;9.926;2022-10-04T01:19:56;45.72;;;23.90;;
66870;SDS011;53780;44.998;9.926;2022-10-04T01:23:00;44.20;;;22.63;;
66870;SDS011;53780;44.998;9.926;2022-10-04T01:26:34;44.40;;;24.25;;
66870;SDS011;53780;44.998;9.926;2022-10-04T01:29:32;42.80;;;22.27;;
66870;SDS011;53780;44.998;9.926;2022-10-04T01:32:37;39.60;;;21.48;;
66870;SDS011;53780;44.998;9.926;2022-10-04T01:35:41;39.60;;;20.70;;
66870;SDS011;53780;44.998;9.926;2022-10-04T01:38:45;45.85;;;22.83;;
66870;SDS011;53780;44.998;9.926;2022-10-04T01:45:14;43.80;;;23.43;;
66870;SDS011;53780;44.998;9.926;2022-10-04T01:48:26;43.78;;;22.67;;
66870;SDS011;53780;44.998;9.926;2022-10-04T01:51:35;42.10;;;21.65;;
66870;SDS011;53780;44.998;9.926;2022-10-04T01:55:05;39.38;;;21.33;;
66870;SDS011;53780;44.998;9.926;2022-10-04T01:58:20;47.42;;;27.30;;
66870;SDS011;53780;44.998;9.926;2022-10-04T02:04:51;44.70;;;24.67;;
66870;SDS011;53780;44.998;9.926;2022-10-04T02:08:02;43.80;;;24.08;;
66870;SDS011;53780;44.998;9.926;2022-10-04T02:11:08;45.03;;;24.67;;
66870;SDS011;53780;44.998;9.926;2022-10-04T02:14:23;48.80;;;25.27;;
66870;SDS011;53780;44.998;9.926;2022-10-04T02:17:30;48.17;;;26.63;;
66870;SDS011;53780;44.998;9.926;2022-10-04T02:20:40;54.17;;;27.42;;
66870;SDS011;53780;44.998;9.926;2022-10-04T02:23:46;51.90;;;26.95;;
66870;SDS011;53780;44.998;9.926;2022-10-04T02:26:50;55.10;;;28.98;;
66870;SDS011;53780;44.998;9.926;2022-10-04T02:30:02;59.63;;;29.08;;
66870;SDS011;53780;44.998;9.926;2022-10-04T02:33:09;59.53;;;29.43;;
66870;SDS011;53780;44.998;9.926;2022-10-04T02:36:13;59.10;;;29.85;;
66870;SDS011;53780;44.998;9.926;2022-10-04T02:39:20;57.05;;;30.30;;
66870;SDS011;53780;44.998;9.926;2022-10-04T02:49:00;60.23;;;30.87;;
66870;SDS011;53780;44.998;9.926;2022-10-04T02:52:26;59.80;;;30.27;;
66870;SDS011;53780;44.998;9.926;2022-10-04T02:55:34;76.47;;;31.15;;
66870;SDS011;53780;44.998;9.926;2022-10-04T02:58:39;63.88;;;30.88;;
66870;SDS011;53780;44.998;9.926;2022-10-04T03:04:59;55.43;;;29.07;;
66870;SDS011;53780;44.998;9.926;2022-10-04T03:08:09;52.65;;;28.77;;
66870;SDS011;53780;44.998;9.926;2022-10-04T03:11:14;58.42;;;30.38;;
66870;SDS011;53780;44.998;9.926;2022-10-04T03:14:21;56.97;;;28.42;;
66870;SDS011;53780;44.998;9.926;2022-10-04T03:17:27;56.08;;;28.40;;
66870;SDS011;53780;44.998;9.926;2022-10-04T03:20:34;55.30;;;27.63;;
66870;SDS011;53780;44.998;9.926;2022-10-04T03:23:41;55.33;;;27.98;;
66870;SDS011;53780;44.998;9.926;2022-10-04T03:26:47;53.97;;;28.00;;
66870;SDS011;53780;44.998;9.926;2022-10-04T03:29:54;54.13;;;28.52;;
66870;SDS011;53780;44.998;9.926;2022-10-04T03:32:58;56.25;;;28.23;;
66870;SDS011;53780;44.998;9.926;2022-10-04T03:36:02;53.70;;;29.57;;
66870;SDS011;53780;44.998;9.926;2022-10-04T03:39:07;59.25;;;29.25;;
66870;SDS011;53780;44.998;9.926;2022-10-04T03:42:21;55.25;;;30.50;;
66870;SDS011;53780;44.998;9.926;2022-10-04T03:45:28;56.00;;;28.73;;
66870;SDS011;53780;44.998;9.926;2022-10-04T03:48:45;59.55;;;30.10;;
66870;SDS011;53780;44.998;9.926;2022-10-04T03:51:54;55.83;;;29.20;;
66870;SDS011;53780;44.998;9.926;2022-10-04T03:55:02;56.33;;;29.05;;
66870;SDS011;53780;44.998;9.926;2022-10-04T03:58:09;65.80;;;30.15;;
66870;SDS011;53780;44.998;9.926;2022-10-04T04:04:35;59.17;;;29.25;;
66870;SDS011;53780;44.998;9.926;2022-10-04T04:07:46;72.93;;;30.17;;
66870;SDS011;53780;44.998;9.926;2022-10-04T04:11:15;62.15;;;30.05;;
66870;SDS011;53780;44.998;9.926;2022-10-04T04:14:25;64.10;;;29.80;;
66870;SDS011;53780;44.998;9.926;2022-10-04T04:17:35;60.35;;;30.23;;
66870;SDS011;53780;44.998;9.926;2022-10-04T04:20:43;73.95;;;30.55;;
66870;SDS011;53780;44.998;9.926;2022-10-04T04:23:50;67.77;;;30.60;;
66870;SDS011;53780;44.998;9.926;2022-10-04T04:26:57;67.55;;;31.05;;
66870;SDS011;53780;44.998;9.926;2022-10-04T04:30:06;57.42;;;30.98;;
66870;SDS011;53780;44.998;9.926;2022-10-04T04:33:13;63.25;;;30.13;;
66870;SDS011;53780;44.998;9.926;2022-10-04T04:36:27;61.40;;;31.23;;
66870;SDS011;53780;44.998;9.926;2022-10-04T04:39:32;61.30;;;30.33;;
66870;SDS011;53780;44.998;9.926;2022-10-04T04:42:36;58.80;;;30.08;;
66870;SDS011;53780;44.998;9.926;2022-10-04T04:45:40;59.40;;;28.52;;
66870;SDS011;53780;44.998;9.926;2022-10-04T04:48:45;70.07;;;30.00;;
66870;SDS011;53780;44.998;9.926;2022-10-04T04:51:51;112.70;;;32.75;;
66870;SDS011;53780;44.998;9.926;2022-10-04T04:54:54;69.93;;;30.00;;
66870;SDS011;53780;44.998;9.926;2022-10-04T04:57:58;115.25;;;31.45;;
66870;SDS011;53780;44.998;9.926;2022-10-04T05:01:22;97.38;;;29.85;;
66870;SDS011;53780;44.998;9.926;2022-10-04T05:04:47;89.50;;;29.65;;
66870;SDS011;53780;44.998;9.926;2022-10-04T05:08:03;70.18;;;30.80;;
66870;SDS011;53780;44.998;9.926;2022-10-04T05:11:16;63.63;;;31.07;;
66870;SDS011;53780;44.998;9.926;2022-10-04T05:14:24;87.35;;;32.67;;
66870;SDS011;53780;44.998;9.926;2022-10-04T05:17:29;62.90;;;30.23;;
66870;SDS011;53780;44.998;9.926;2022-10-04T05:20:37;73.22;;;29.40;;
66870;SDS011;53780;44.998;9.926;2022-10-04T05:23:41;56.88;;;29.00;;
66870;SDS011;53780;44.998;9.926;2022-10-04T05:26:48;60.57;;;28.83;;
66870;SDS011;53780;44.998;9.926;2022-10-04T05:30:02;54.50;;;27.85;;
66870;SDS011;53780;44.998;9.926;2022-10-04T05:33:45;55.15;;;27.92;;
66870;SDS011;53780;44.998;9.926;2022-10-04T05:40:12;58.13;;;27.83;;
66870;SDS011;53780;44.998;9.926;2022-10-04T05:47:01;56.60;;;26.70;;
66870;SDS011;53780;44.998;9.926;2022-10-04T05:50:14;57.05;;;27.20;;
66870;SDS011;53780;44.998;9.926;2022-10-04T05:53:33;61.63;;;29.73;;
66870;SDS011;53780;44.998;9.926;2022-10-04T05:56:48;68.10;;;30.38;;
66870;SDS011;53780;44.998;9.926;2022-10-04T06:00:15;67.83;;;29.07;;
66870;SDS011;53780;44.998;9.926;2022-10-04T06:03:25;76.40;;;30.90;;
66870;SDS011;53780;44.998;9.926;2022-10-04T06:06:55;59.00;;;28.73;;
66870;SDS011;53780;44.998;9.926;2022-10-04T06:13:48;55.97;;;26.95;;
66870;SDS011;53780;44.998;9.926;2022-10-04T06:30:12;30.50;;;17.38;;
66870;SDS011;53780;44.998;9.926;2022-10-04T06:46:41;33.33;;;19.40;;
66870;SDS011;53780;44.998;9.926;2022-10-04T06:50:10;32.53;;;18.00;;
66870;SDS011;53780;44.998;9.926;2022-10-04T06:57:04;32.90;;;18.58;;
66870;SDS011;53780;44.998;9.926;2022-10-04T07:00:46;31.48;;;18.20;;
66870;SDS011;53780;44.998;9.926;2022-10-04T07:04:02;30.38;;;18.13;;
66870;SDS011;53780;44.998;9.926;2022-10-04T07:07:28;34.10;;;18.80;;
66870;SDS011;53780;44.998;9.926;2022-10-04T07:10:46;36.70;;;20.40;;
66870;SDS011;53780;44.998;9.926;2022-10-04T07:17:41;37.03;;;20.10;;
66870;SDS011;53780;44.998;9.926;2022-10-04T07:20:48;39.50;;;20.17;;
66870;SDS011;53780;44.998;9.926;2022-10-04T07:24:01;37.93;;;19.27;;
66870;SDS011;53780;44.998;9.926;2022-10-04T07:27:11;35.92;;;18.58;;
66870;SDS011;53780;44.998;9.926;2022-10-04T07:30:18;31.42;;;16.77;;
66870;SDS011;53780;44.998;9.926;2022-10-04T07:33:23;33.22;;;17.52;;
66870;SDS011;53780;44.998;9.926;2022-10-04T07:36:37;34.47;;;18.75;;
66870;SDS011;53780;44.998;9.926;2022-10-04T07:43:23;36.55;;;18.20;;
66870;SDS011;53780;44.998;9.926;2022-10-04T07:49:45;32.33;;;16.60;;
66870;SDS011;53780;44.998;9.926;2022-10-04T07:52:56;36.67;;;16.95;;
66870;SDS011;53780;44.998;9.926;2022-10-04T07:56:32;32.90;;;16.87;;
66870;SDS011;53780;44.998;9.926;2022-10-04T08:06:33;33.38;;;17.48;;
66870;SDS011;53780;44.998;9.926;2022-10-04T08:09:50;35.63;;;18.95;;
66870;SDS011;53780;44.998;9.926;2022-10-04T08:13:33;33.17;;;17.37;;
66870;SDS011;53780;44.998;9.926;2022-10-04T08:16:48;34.55;;;16.23;;
66870;SDS011;53780;44.998;9.926;2022-10-04T08:23:49;32.50;;;16.27;;
66870;SDS011;53780;44.998;9.926;2022-10-04T08:27:20;35.85;;;17.90;;
66870;SDS011;53780;44.998;9.926;2022-10-04T08:30:43;31.77;;;16.30;;
66870;SDS011;53780;44.998;9.926;2022-10-04T08:54:27;28.05;;;13.38;;
66870;SDS011;53780;44.998;9.926;2022-10-04T09:08:24;28.10;;;13.65;;
66870;SDS011;53780;44.998;9.926;2022-10-04T09:25:12;33.83;;;16.05;;
66870;SDS011;53780;44.998;9.926;2022-10-04T09:49:02;30.80;;;14.77;;
66870;SDS011;53780;44.998;9.926;2022-10-04T09:55:59;27.50;;;13.90;;
66870;SDS011;53780;44.998;9.926;2022-10-04T10:03:17;23.38;;;13.88;;
66870;SDS011;53780;44.998;9.926;2022-10-04T10:06:49;26.08;;;14.27;;
66870;SDS011;53780;44.998;9.926;2022-10-04T10:20:50;20.50;;;12.07;;
66870;SDS011;53780;44.998;9.926;2022-10-04T12:10:22;14.45;;;9.10;;
66870;SDS011;53780;44.998;9.926;2022-10-04T12:30:20;19.10;;;11.17;;
66870;SDS011;53780;44.998;9.926;2022-10-04T12:33:52;20.20;;;11.07;;
66870;SDS011;53780;44.998;9.926;2022-10-04T12:54:44;17.73;;;11.23;;
66870;SDS011;53780;44.998;9.926;2022-10-04T12:58:02;18.65;;;10.35;;
66870;SDS011;53780;44.998;9.926;2022-10-04T13:04:59;20.00;;;11.50;;
66870;SDS011;53780;44.998;9.926;2022-10-04T13:11:55;19.45;;;11.10;;
66870;SDS011;53780;44.998;9.926;2022-10-04T13:15:20;17.90;;;10.30;;
66870;SDS011;53780;44.998;9.926;2022-10-04T13:25:20;16.55;;;8.90;;
66870;SDS011;53780;44.998;9.926;2022-10-04T13:29:10;16.85;;;9.73;;
66870;SDS011;53780;44.998;9.926;2022-10-04T13:32:24;19.33;;;10.50;;
66870;SDS011;53780;44.998;9.926;2022-10-04T13:45:20;15.07;;;8.32;;
66870;SDS011;53780;44.998;9.926;2022-10-04T13:48:41;15.88;;;8.60;;
66870;SDS011;53780;44.998;9.926;2022-10-04T14:30:06;19.13;;;10.97;;
66870;SDS011;53780;44.998;9.926;2022-10-04T14:40:44;18.80;;;11.00;;
66870;SDS011;53780;44.998;9.926;2022-10-04T14:54:50;18.98;;;11.40;;
66870;SDS011;53780;44.998;9.926;2022-10-04T14:58:12;18.27;;;10.32;;
66870;SDS011;53780;44.998;9.926;2022-10-04T15:01:25;22.25;;;12.07;;
66870;SDS011;53780;44.998;9.926;2022-10-04T15:07:40;20.10;;;11.18;;
66870;SDS011;53780;44.998;9.926;2022-10-04T15:10:59;19.15;;;11.27;;
66870;SDS011;53780;44.998;9.926;2022-10-04T15:14:58;19.67;;;11.43;;
66870;SDS011;53780;44.998;9.926;2022-10-04T15:20:55;20.00;;;11.17;;
66870;SDS011;53780;44.998;9.926;2022-10-04T15:30:44;22.17;;;11.82;;
66870;SDS011;53780;44.998;9.926;2022-10-04T15:51:10;18.33;;;11.38;;
66870;SDS011;53780;44.998;9.926;2022-10-04T15:58:18;20.25;;;11.45;;
66870;SDS011;53780;44.998;9.926;2022-10-04T16:08:50;17.38;;;9.93;;
66870;SDS011;53780;44.998;9.926;2022-10-04T16:15:37;22.85;;;12.80;;
66870;SDS011;53780;44.998;9.926;2022-10-04T16:22:02;23.30;;;12.35;;
66870;SDS011;53780;44.998;9.926;2022-10-04T16:34:57;24.17;;;13.00;;
66870;SDS011;53780;44.998;9.926;2022-10-04T16:41:30;23.65;;;12.85;;
66870;SDS011;53780;44.998;9.926;2022-10-04T16:51:36;23.80;;;12.70;;
66870;SDS011;53780;44.998;9.926;2022-10-04T17:07:56;28.20;;;14.40;;
66870;SDS011;53780;44.998;9.926;2022-10-04T17:21:20;26.27;;;14.02;;
66870;SDS011;53780;44.998;9.926;2022-10-04T17:27:46;25.98;;;14.05;;
66870;SDS011;53780;44.998;9.926;2022-10-04T17:31:14;27.83;;;13.77;;
66870;SDS011;53780;44.998;9.926;2022-10-04T17:41:16;29.13;;;14.70;;
66870;SDS011;53780;44.998;9.926;2022-10-04T17:48:09;25.33;;;14.68;;
66870;SDS011;53780;44.998;9.926;2022-10-04T17:51:37;27.33;;;15.43;;
66870;SDS011;53780;44.998;9.926;2022-10-04T17:55:19;29.50;;;16.35;;
66870;SDS011;53780;44.998;9.926;2022-10-04T17:58:35;33.15;;;16.08;;
66870;SDS011;53780;44.998;9.926;2022-10-04T18:01:52;28.35;;;15.88;;
66870;SDS011;53780;44.998;9.926;2022-10-04T18:05:11;27.35;;;15.52;;
66870;SDS011;53780;44.998;9.926;2022-10-04T18:11:40;28.98;;;15.50;;
66870;SDS011;53780;44.998;9.926;2022-10-04T18:14:50;29.17;;;15.45;;
66870;SDS011;53780;44.998;9.926;2022-10-04T18:21:28;26.95;;;15.57;;
66870;SDS011;53780;44.998;9.926;2022-10-04T18:24:33;28.50;;;14.63;;
66870;SDS011;53780;44.998;9.926;2022-10-04T18:27:51;28.17;;;15.30;;
66870;SDS011;53780;44.998;9.926;2022-10-04T18:34:33;34.20;;;16.08;;
66870;SDS011;53780;44.998;9.926;2022-10-04T18:37:39;32.30;;;16.50;;
66870;SDS011;53780;44.998;9.926;2022-10-04T18:40:52;30.67;;;16.33;;
66870;SDS011;53780;44.998;9.926;2022-10-04T18:47:11;26.20;;;15.18;;
66870;SDS011;53780;44.998;9.926;2022-10-04T18:50:37;30.02;;;15.13;;
66870;SDS011;53780;44.998;9.926;2022-10-04T18:53:45;31.88;;;15.55;;
66870;SDS011;53780;44.998;9.926;2022-10-04T19:00:29;27.27;;;14.93;;
66870;SDS011;53780;44.998;9.926;2022-10-04T19:04:01;28.27;;;15.50;;
66870;SDS011;53780;44.998;9.926;2022-10-04T19:07:17;25.73;;;14.48;;
66870;SDS011;53780;44.998;9.926;2022-10-04T19:10:39;25.83;;;14.35;;
66870;SDS011;53780;44.998;9.926;2022-10-04T19:17:37;27.13;;;14.63;;
66870;SDS011;53780;44.998;9.926;2022-10-04T19:20:53;26.85;;;15.38;;
66870;SDS011;53780;44.998;9.926;2022-10-04T19:27:30;27.05;;;14.93;;
66870;SDS011;53780;44.998;9.926;2022-10-04T19:30:59;27.87;;;15.10;;
66870;SDS011;53780;44.998;9.926;2022-10-04T19:34:27;26.17;;;15.35;;
66870;SDS011;53780;44.998;9.926;2022-10-04T19:37:36;27.90;;;15.43;;
66870;SDS011;53780;44.998;9.926;2022-10-04T19:40:57;27.65;;;16.50;;
66870;SDS011;53780;44.998;9.926;2022-10-04T19:50:46;28.58;;;15.65;;
66870;SDS011;53780;44.998;9.926;2022-10-04T19:54:12;30.42;;;16.38;;
66870;SDS011;53780;44.998;9.926;2022-10-04T19:57:20;27.13;;;16.45;;
66870;SDS011;53780;44.998;9.926;2022-10-04T20:00:35;26.15;;;15.98;;
66870;SDS011;53780;44.998;9.926;2022-10-04T20:03:39;33.67;;;17.00;;
66870;SDS011;53780;44.998;9.926;2022-10-04T20:06:47;28.55;;;16.73;;
66870;SDS011;53780;44.998;9.926;2022-10-04T20:10:07;29.73;;;17.05;;
66870;SDS011;53780;44.998;9.926;2022-10-04T20:19:48;31.93;;;17.93;;
66870;SDS011;53780;44.998;9.926;2022-10-04T20:22:53;33.65;;;18.35;;
66870;SDS011;53780;44.998;9.926;2022-10-04T20:25:59;31.90;;;17.90;;
66870;SDS011;53780;44.998;9.926;2022-10-04T20:29:03;32.22;;;18.63;;
66870;SDS011;53780;44.998;9.926;2022-10-04T20:32:07;32.35;;;18.40;;
66870;SDS011;53780;44.998;9.926;2022-10-04T20:35:56;31.10;;;18.17;;
66870;SDS011;53780;44.998;9.926;2022-10-04T20:38:59;33.30;;;18.52;;
66870;SDS011;53780;44.998;9.926;2022-10-04T20:42:06;33.22;;;18.67;;
66870;SDS011;53780;44.998;9.926;2022-10-04T20:45:27;29.73;;;16.92;;
66870;SDS011;53780;44.998;9.926;2022-10-04T20:48:32;27.90;;;15.98;;
66870;SDS011;53780;44.998;9.926;2022-10-04T20:51:36;30.87;;;15.87;;
66870;SDS011;53780;44.998;9.926;2022-10-04T20:54:47;29.67;;;14.70;;
66870;SDS011;53780;44.998;9.926;2022-10-04T20:57:55;28.65;;;15.50;;
66870;SDS011;53780;44.998;9.926;2022-10-04T21:01:27;28.67;;;16.10;;
66870;SDS011;53780;44.998;9.926;2022-10-04T21:04:38;31.20;;;16.67;;
66870;SDS011;53780;44.998;9.926;2022-10-04T21:07:46;31.37;;;15.10;;
66870;SDS011;53780;44.998;9.926;2022-10-04T21:11:01;32.17;;;15.93;;
66870;SDS011;53780;44.998;9.926;2022-10-04T21:14:09;27.30;;;15.70;;
66870;SDS011;53780;44.998;9.926;2022-10-04T21:20:43;35.13;;;18.38;;
66870;SDS011;53780;44.998;9.926;2022-10-04T21:23:50;37.97;;;20.83;;
66870;SDS011;53780;44.998;9.926;2022-10-04T21:26:54;38.33;;;20.98;;
66870;SDS011;53780;44.998;9.926;2022-10-04T21:30:00;38.38;;;21.95;;
66870;SDS011;53780;44.998;9.926;2022-10-04T21:33:07;42.78;;;22.20;;
66870;SDS011;53780;44.998;9.926;2022-10-04T21:36:11;37.17;;;17.83;;
66870;SDS011;53780;44.998;9.926;2022-10-04T21:39:15;35.67;;;18.47;;
